Data for 02/16/2008

Time Sea-Level Adjusted Pressure Absolute Pressure Temperature Relative Humidity Dew Point   
(mb) (inHg) (mb) (inHg) (C) (F) (%) (C) (F)
00:05 1014 29.94 843 24.89 -1.3 29.6 72 -5.7 21.7
00:10 1014 29.94 843 24.89 -1.2 29.8 68 -6.3 20.6
00:15 1014 29.94 843 24.89 -1.5 29.4 70 -6.2 20.9
00:20 1013 29.91 843 24.89 -1.6 29.2 70 -6.2 20.8
00:25 1013 29.91 843 24.89 -1.7 28.9 75 -5.5 22.1
00:30 1013 29.91 842 24.86 -1.8 28.9 76 -5.5 22.1
00:35 1013 29.91 842 24.86 -2 28.5 77 -5.5 22.1
00:40 1013 29.91 842 24.86 -1.9 28.5 77 -5.4 22.2
00:45 1013 29.91 842 24.86 -1.8 28.8 76 -5.4 22.3
00:50 1013 29.91 842 24.86 -1.6 29 76 -5.4 22.3
00:55 1012 29.88 842 24.86 -1.5 29.3 74 -5.6 22
01:00 1012 29.88 841 24.83 -1.3 29.7 74 -5.4 22.3
01:05 1012 29.88 841 24.83 -1.7 28.9 76 -5.4 22.2
01:10 1012 29.88 841 24.83 -2.2 28.1 78 -5.5 22.2
01:15 1012 29.88 841 24.83 -2.1 28.3 77 -5.6 22
01:20 1012 29.88 841 24.83 -1.6 29.2 74 -5.7 21.8
01:25 1012 29.88 841 24.83 -0.9 30.4 73 -5.2 22.7
01:30 1012 29.88 841 24.83 -0.8 30.5 72 -5.4 22.3
01:35 1012 29.88 841 24.83 -0.7 30.8 71 -5.3 22.4
01:40 1012 29.88 841 24.83 -0.6 31 71 -5.2 22.7
01:45 1012 29.88 841 24.83 -0.6 31 69 -5.5 22.1
01:50 1012 29.88 841 24.83 0 32.1 67 -5.4 22.2
01:55 1012 29.88 841 24.83 0.1 32.1 70 -4.8 23.4
02:00 1012 29.88 841 24.83 -0.3 31.5 71 -4.9 23.2
02:05 1012 29.88 841 24.83 -0.5 31 70 -5.4 22.3
02:10 1012 29.88 841 24.83 -0.8 30.6 71 -5.3 22.4
02:15 1012 29.88 841 24.83 -0.9 30.4 70 -5.7 21.8
02:20 1012 29.88 841 24.83 -0.3 31.5 68 -5.4 22.2
02:25 1012 29.88 841 24.83 0 32.1 70 -4.8 23.3
02:30 1012 29.88 841 24.83 -0.3 31.5 72 -4.7 23.5
02:35 1012 29.88 841 24.83 -0.1 31.8 73 -4.4 24
02:40 1012 29.88 841 24.83 0.1 32.2 72 -4.4 24.1
02:45 1012 29.88 841 24.83 0.3 32.6 68 -4.8 23.3
02:50 1012 29.88 841 24.83 0.9 33.7 68 -4.4 24.2
02:55 1012 29.88 841 24.83 0.4 32.8 71 -4.2 24.5
03:00 1012 29.88 841 24.83 -0.2 31.7 73 -4.5 23.9
03:05 1012 29.88 842 24.86 -0.2 31.6 70 -5 22.9
03:10 1012 29.88 841 24.83 -0 31.9 67 -5.5 22.2
03:15 1012 29.88 842 24.86 -0 32 68 -5.2 22.7
03:20 1013 29.91 842 24.86 -0.3 31.5 71 -4.9 23.2
03:25 1013 29.91 842 24.86 -0.7 30.7 72 -5.1 22.9
03:30 1013 29.91 842 24.86 -0.9 30.4 72 -5.3 22.4
03:35 1013 29.91 842 24.86 -1 30.2 72 -5.4 22.2
03:40 1013 29.91 842 24.86 -1 30.2 71 -5.6 21.8
03:45 1013 29.91 842 24.86 -0.8 30.5 73 -5.2 22.7
03:50 1013 29.91 842 24.86 -0.8 30.6 72 -5.2 22.7
03:55 1013 29.91 842 24.86 -0.9 30.3 79 -4.1 24.7
04:00 1013 29.91 842 24.86 -1.2 29.9 78 -4.5 24
04:05 1013 29.91 842 24.86 -1.2 29.8 78 -4.5 23.8
04:10 1013 29.91 842 24.86 -1.1 30.1 78 -4.4 24
04:15 1012 29.88 842 24.86 -1.1 30 77 -4.6 23.8
04:20 1012 29.88 842 24.86 -1.1 30.1 76 -4.8 23.3
04:25 1012 29.88 842 24.86 -0.9 30.3 76 -4.7 23.6
04:30 1012 29.88 841 24.83 -0.9 30.4 76 -4.6 23.7
04:35 1012 29.88 841 24.83 -0.7 30.7 75 -4.5 23.8
04:40 1012 29.88 841 24.83 -0.5 31.1 74 -4.5 23.9
04:45 1012 29.88 841 24.83 -0.4 31.4 75 -4.3 24.2
04:50 1012 29.88 841 24.83 -0.3 31.4 75 -4.2 24.4
04:55 1012 29.88 841 24.83 -0.3 31.4 75 -4.3 24.3
05:00 1012 29.88 841 24.83 -0.5 31.1 76 -4.2 24.5
05:05 1012 29.88 841 24.83 -0.7 30.8 78 -4.1 24.6
05:10 1012 29.88 841 24.83 -0.8 30.6 79 -4 24.7
05:15 1012 29.88 841 24.83 -0.8 30.6 79 -4 24.8
05:20 1012 29.88 841 24.83 -0.4 31.2 74 -4.5 23.8
05:25 1012 29.88 841 24.83 0.1 32.1 71 -4.5 23.8
05:30 1012 29.88 841 24.83 0.5 33 70 -4.4 24.2
05:35 1012 29.88 841 24.83 0.8 33.4 67 -4.6 23.6
05:40 1012 29.88 842 24.86 1.2 34.2 67 -4.4 24.2
05:45 1012 29.88 841 24.83 1.4 34.5 66 -4.3 24.2
05:50 1012 29.88 842 24.86 1.5 34.6 66 -4.3 24.3
05:55 1013 29.91 842 24.86 1.4 34.5 66 -4.3 24.3
06:00 1013 29.91 842 24.86 1.4 34.5 65 -4.4 24
06:05 1013 29.91 842 24.86 1.4 34.4 67 -4.1 24.5
06:10 1013 29.91 842 24.86 1.3 34.3 68 -4.1 24.7
06:15 1013 29.91 843 24.89 0.9 33.7 70 -4 24.9
06:20 1014 29.94 843 24.89 0.6 33 74 -3.5 25.8
06:25 1014 29.94 843 24.89 0.3 32.5 77 -3.2 26.2
06:30 1014 29.94 843 24.89 0.2 32.3 79 -3 26.6
06:35 1014 29.94 843 24.89 0.2 32.3 80 -2.9 26.8
06:40 1014 29.94 843 24.89 0.2 32.3 81 -2.7 27.1
06:45 1014 29.94 843 24.89 0.2 32.4 81 -2.7 27.1
06:50 1014 29.94 843 24.89 0.5 32.9 80 -2.6 27.3
06:55 1014 29.94 843 24.89 0.6 33 80 -2.5 27.4
07:00 1014 29.94 843 24.89 0.6 33 81 -2.4 27.7
07:05 1014 29.94 843 24.89 0.5 32.9 81 -2.4 27.7
07:10 1014 29.94 843 24.89 0.5 33 81 -2.3 27.9
07:15 1014 29.94 843 24.89 0.6 33.1 81 -2.2 28
07:20 1014 29.94 843 24.89 0.6 33.2 82 -2.2 28.1
07:25 1014 29.94 843 24.89 0.6 33.2 82 -2.2 28.1
07:30 1014 29.94 843 24.89 0.6 33.1 82 -2.1 28.3
07:35 1014 29.94 844 24.92 0.5 32.8 83 -2.1 28.2
07:40 1014 29.94 844 24.92 0.4 32.7 82 -2.2 28
07:45 1014 29.94 844 24.92 0.5 32.9 81 -2.3 27.8
07:50 1014 29.94 844 24.92 0.6 33 81 -2.3 27.9
07:55 1014 29.94 844 24.92 0.6 33.1 80 -2.4 27.6
08:00 1014 29.94 843 24.89 0.8 33.4 78 -2.6 27.3
08:05 1014 29.94 843 24.89 0.8 33.4 78 -2.7 27.2
08:10 1014 29.94 843 24.89 0.9 33.6 77 -2.7 27.1
08:15 1014 29.94 844 24.92 1 33.9 76 -2.8 26.9
08:20 1014 29.94 844 24.92 1.1 34.1 75 -2.8 27
08:25 1014 29.94 844 24.92 1.2 34.1 75 -2.7 27.1
08:30 1014 29.94 844 24.92 1.1 33.9 78 -2.4 27.6
08:35 1014 29.94 844 24.92 0.7 33.2 81 -2.2 28.1
08:40 1015 29.97 844 24.92 0.3 32.6 82 -2.4 27.7
08:45 1015 29.97 844 24.92 0.6 33 79 -2.6 27.3
08:50 1015 29.97 844 24.92 1 33.8 77 -2.7 27.2
08:55 1015 29.97 844 24.92 1.3 34.3 75 -2.7 27.1
09:00 1015 29.97 844 24.92 0.9 33.7 76 -2.9 26.8
09:05 1015 29.97 844 24.92 0.8 33.4 70 -4.1 24.7
09:10 1015 29.97 844 24.92 0.7 33.3 70 -4.1 24.5
09:15 1015 29.97 844 24.92 0.7 33.3 70 -4.1 24.6
09:20 1015 29.97 844 24.92 0.7 33.3 69 -4.4 24.1
09:25 1014 29.94 844 24.92 0.9 33.7 66 -4.7 23.6
09:30 1014 29.94 844 24.92 1.3 34.3 64 -4.7 23.5
09:35 1014 29.94 844 24.92 1.6 34.8 63 -4.8 23.3
09:40 1015 29.97 844 24.92 1.6 35 62 -4.9 23.1
09:45 1015 29.97 844 24.92 1.7 35.1 61 -4.9 23.2
09:50 1015 29.97 844 24.92 1.8 35.3 61 -5 23
09:55 1015 29.97 844 24.92 1.9 35.4 60 -5.1 22.9
10:00 1015 29.97 844 24.92 2 35.5 60 -5 23
10:05 1015 29.97 844 24.92 2 35.6 61 -4.7 23.6
10:10 1015 29.97 844 24.92 2.1 35.8 62 -4.5 23.9
10:15 1015 29.97 844 24.92 2.1 35.7 62 -4.4 24.1
10:20 1015 29.97 844 24.92 2.2 36 61 -4.5 23.9
10:25 1015 29.97 844 24.92 2.2 36 62 -4.3 24.3
10:30 1015 29.97 844 24.92 2.2 36 63 -4.1 24.6
10:35 1015 29.97 844 24.92 2 35.7 63 -4.2 24.4
10:40 1015 29.97 844 24.92 2.2 36 61 -4.5 23.8
10:45 1015 29.97 844 24.92 2.5 36.5 57 -5.2 22.6
10:50 1015 29.97 844 24.92 2.7 36.8 56 -5.1 22.8
10:55 1015 29.97 844 24.92 3 37.5 54 -5.4 22.3
11:00 1015 29.97 844 24.92 3.2 37.7 53 -5.5 22.2
11:05 1015 29.97 844 24.92 3.2 37.7 50 -6.1 20.9
11:10 1015 29.97 844 24.92 3.2 37.7 51 -6.1 21
11:15 1015 29.97 844 24.92 3.2 37.8 51 -6 21.2
11:20 1015 29.97 844 24.92 3.8 38.8 48 -6.2 20.9
11:25 1015 29.97 844 24.92 4 39.2 47 -6.2 20.8
11:30 1015 29.97 844 24.92 4.2 39.6 46 -6.2 20.8
11:35 1015 29.97 844 24.92 4.2 39.5 45 -6.7 19.9
11:40 1015 29.97 844 24.92 4.5 40.1 46 -6.1 21.1
11:45 1015 29.97 844 24.92 4.5 40.1 46 -6.2 20.9
11:50 1015 29.97 844 24.92 4.5 40.1 44 -6.6 20
11:55 1015 29.97 844 24.92 4.8 40.7 43 -6.6 20.2
12:00 1015 29.97 844 24.92 4.6 40.3 43 -7 19.4
12:05 1015 29.97 844 24.92 4.8 40.7 43 -6.8 19.7
12:10 1015 29.97 844 24.92 4.8 40.7 43 -6.7 19.9
12:15 1015 29.97 844 24.92 5.5 41.9 41 -6.7 20
12:20 1015 29.97 844 24.92 5.5 41.9 42 -6.3 20.7
12:25 1015 29.97 844 24.92 5.4 41.8 40 -7.1 19.2
12:30 1015 29.97 844 24.92 5.4 41.7 43 -6.1 21.1
12:35 1015 29.97 844 24.92 4.5 40.2 45 -6.4 20.5
12:40 1015 29.97 844 24.92 4.1 39.4 43 -7.3 18.8
12:45 1015 29.97 844 24.92 4.1 39.4 45 -6.6 20
12:50 1015 29.97 844 24.92 4.1 39.3 44 -7.1 19.2
12:55 1015 29.97 844 24.92 4.4 39.9 46 -6.2 20.8
13:00 1014 29.94 844 24.92 4.4 39.9 46 -6.3 20.7
13:05 1014 29.94 844 24.92 4.3 39.8 46 -6.4 20.6
13:10 1014 29.94 844 24.92 4.4 39.9 46 -6.3 20.6
13:15 1014 29.94 843 24.89 4.3 39.8 46 -6.2 20.9
13:20 1014 29.94 843 24.89 4.4 39.8 47 -5.9 21.4
13:25 1014 29.94 843 24.89 4.2 39.5 48 -5.9 21.3
13:30 1014 29.94 843 24.89 4.2 39.5 48 -6 21.2
13:35 1014 29.94 843 24.89 4.5 40.1 45 -6.4 20.4
13:40 1014 29.94 843 24.89 4.9 40.8 41 -7.2 19
13:45 1014 29.94 843 24.89 5.2 41.4 40 -7.4 18.6
13:50 1014 29.94 843 24.89 5.4 41.7 42 -6.4 20.4
13:55 1014 29.94 843 24.89 5.4 41.7 43 -6.1 21
14:00 1014 29.94 843 24.89 5.9 42.6 43 -5.8 21.5
14:05 1014 29.94 843 24.89 6.2 43.1 42 -6 21.3
14:10 1014 29.94 843 24.89 6.3 43.3 39 -6.5 20.3
14:15 1014 29.94 843 24.89 6.8 44.3 38 -6.5 20.4
14:20 1014 29.94 843 24.89 6.7 44.1 36 -7.4 18.7
14:25 1014 29.94 843 24.89 6.8 44.3 37 -6.9 19.6
14:30 1014 29.94 843 24.89 6.6 43.9 37 -6.9 19.6
14:35 1014 29.94 843 24.89 6.4 43.5 36 -7.6 18.3
14:40 1014 29.94 843 24.89 6.3 43.4 37 -7.2 19.1
14:45 1014 29.94 843 24.89 6.3 43.3 39 -6.6 20.1
14:50 1014 29.94 843 24.89 6.5 43.7 38 -6.9 19.5
14:55 1014 29.94 843 24.89 6.9 44.4 37 -7 19.4
15:00 1014 29.94 843 24.89 7.2 44.9 37 -6.4 20.5
15:05 1014 29.94 843 24.89 6.5 43.6 40 -6.1 21
15:10 1014 29.94 843 24.89 5.6 42.1 42 -6.3 20.7
15:15 1014 29.94 843 24.89 5.6 42.1 43 -6.1 21
15:20 1014 29.94 843 24.89 5.8 42.5 41 -6.3 20.7
15:25 1014 29.94 843 24.89 5.9 42.7 40 -6.5 20.2
15:30 1014 29.94 843 24.89 5.7 42.2 41 -6.4 20.5
15:35 1014 29.94 843 24.89 5.4 41.8 41 -6.7 19.9
15:40 1014 29.94 843 24.89 5.4 41.6 42 -6.4 20.4
15:45 1014 29.94 843 24.89 5.3 41.5 42 -6.5 20.2
15:50 1014 29.94 843 24.89 5.2 41.4 43 -6.4 20.6
15:55 1014 29.94 843 24.89 5 41 42 -7 19.5
16:00 1014 29.94 843 24.89 4.9 40.8 43 -6.7 20
16:05 1014 29.94 843 24.89 4.8 40.7 42 -7 19.5
16:10 1014 29.94 843 24.89 4.8 40.6 41 -7.3 18.8
16:15 1014 29.94 843 24.89 4.8 40.6 40 -7.8 17.9
16:20 1014 29.94 843 24.89 4.8 40.7 42 -7.1 19.1
16:25 1014 29.94 843 24.89 4.8 40.6 44 -6.3 20.6
16:30 1014 29.94 843 24.89 4.7 40.4 46 -6.1 21
16:35 1014 29.94 843 24.89 4.6 40.2 47 -5.9 21.4
16:40 1014 29.94 843 24.89 4.4 39.9 48 -5.8 21.6
16:45 1014 29.94 843 24.89 4.2 39.6 48 -5.8 21.5
16:50 1014 29.94 843 24.89 4.1 39.4 48 -6 21.3
16:55 1014 29.94 843 24.89 3.9 39 49 -5.7 21.7
17:00 1014 29.94 843 24.89 3.7 38.7 51 -5.6 22
17:05 1014 29.94 843 24.89 3.6 38.5 52 -5.4 22.3
17:10 1014 29.94 843 24.89 3.3 38 54 -5.1 22.8
17:15 1014 29.94 843 24.89 3.2 37.7 53 -5.4 22.3
17:20 1014 29.94 843 24.89 3.1 37.6 53 -5.4 22.2
17:25 1014 29.94 844 24.92 3 37.4 52 -5.9 21.3
17:30 1014 29.94 844 24.92 3.1 37.6 52 -5.9 21.4
17:35 1014 29.94 844 24.92 3.1 37.6 53 -5.6 21.9
17:40 1014 29.94 843 24.89 2.8 37.1 54 -5.5 22.2
17:45 1014 29.94 843 24.89 2.6 36.7 55 -5.6 21.9
17:50 1014 29.94 843 24.89 2.5 36.5 51 -6.7 20
17:55 1014 29.94 843 24.89 2.7 36.9 48 -7.4 18.7
18:00 1014 29.94 843 24.89 2.8 37.1 48 -7.1 19.2
18:05 1014 29.94 843 24.89 2.8 37 48 -7.3 18.9
18:10 1014 29.94 843 24.89 2.6 36.7 50 -6.8 19.8
18:15 1014 29.94 843 24.89 2.4 36.3 50 -6.9 19.6
18:20 1014 29.94 844 24.92 2.4 36.3 50 -7 19.5
18:25 1015 29.97 844 24.92 2.4 36.3 51 -6.8 19.8
18:30 1015 29.97 844 24.92 2.4 36.3 51 -6.7 19.9
18:35 1015 29.97 844 24.92 2.3 36.2 52 -6.4 20.4
18:40 1015 29.97 844 24.92 2.4 36.2 53 -6.3 20.6
18:45 1015 29.97 844 24.92 2.4 36.3 52 -6.4 20.4
18:50 1015 29.97 844 24.92 2.3 36.2 52 -6.6 20.1
18:55 1015 29.97 844 24.92 2.3 36.1 50 -7.1 19.2
19:00 1015 29.97 844 24.92 2.2 36 50 -7 19.3
19:05 1015 29.97 844 24.92 2.1 35.7 51 -7.1 19.3
19:10 1015 29.97 844 24.92 1.9 35.4 51 -7.1 19.2
19:15 1015 29.97 845 24.95 1.8 35.2 52 -7.1 19.2
19:20 1015 29.97 845 24.95 1.7 35.1 52 -7.1 19.2
19:25 1016 30 845 24.95 1.6 34.8 52 -7.1 19.2
19:30 1016 30 845 24.95 1.5 34.7 52 -7.3 18.9
19:35 1016 30 845 24.95 1.5 34.6 49 -8 17.6
19:40 1016 30 845 24.95 1.4 34.6 47 -8.8 16.2
19:45 1016 30 845 24.95 1.5 34.7 47 -8.6 16.5
19:50 1016 30 845 24.95 1.4 34.6 48 -8.4 17
19:55 1016 30 845 24.95 1.3 34.4 53 -7.2 19
20:00 1016 30 845 24.95 1.2 34.2 55 -6.9 19.7
20:05 1016 30 845 24.95 1.1 33.9 53 -7.6 18.4
20:10 1016 30 845 24.95 1 33.9 45 -9.5 14.9
20:15 1016 30 845 24.95 1.1 34 44 -9.7 14.5
20:20 1016 30 845 24.95 1 33.8 45 -9.5 14.8
20:25 1016 30 845 24.95 0.8 33.5 47 -9.3 15.3
20:30 1016 30 845 24.95 0.7 33.2 46 -9.8 14.4
20:35 1016 30 845 24.95 0.7 33.2 47 -9.4 15.1
20:40 1016 30 845 24.95 0.6 33.1 48 -9.2 15.5
20:45 1016 30 846 24.98 0.5 32.9 50 -8.7 16.4
20:50 1016 30 846 24.98 0.4 32.8 53 -8.2 17.3
20:55 1016 30 846 24.98 0.2 32.3 55 -7.8 17.9
21:00 1016 30 846 24.98 0 32.1 55 -7.9 17.8
21:05 1016 30 846 24.98 0 32.1 55 -7.9 17.9
21:10 1017 30.03 846 24.98 -0 31.9 56 -7.8 17.9
21:15 1017 30.03 846 24.98 -0.1 31.9 56 -7.9 17.8
21:20 1017 30.03 846 24.98 -0.1 31.8 57 -7.6 18.3
21:25 1017 30.03 846 24.98 -0.4 31.2 60 -7.2 19.1
21:30 1017 30.03 846 24.98 -0.7 30.8 62 -7.1 19.2
21:35 1017 30.03 846 24.98 -0.8 30.6 63 -7 19.3
21:40 1017 30.03 846 24.98 -0.8 30.6 62 -7.2 19
21:45 1017 30.03 846 24.98 -0.8 30.6 61 -7.4 18.7
21:50 1017 30.03 846 24.98 -0.7 30.8 61 -7.2 19
21:55 1017 30.03 846 24.98 -0.5 31.1 61 -7.1 19.2
22:00 1017 30.03 846 24.98 -0.5 31.1 61 -7 19.4
22:05 1017 30.03 846 24.98 -0.6 31 61 -7.3 18.9
22:10 1017 30.03 846 24.98 -0.7 30.8 62 -7.1 19.1
22:15 1017 30.03 846 24.98 -0.8 30.6 62 -7.2 19.1
22:20 1017 30.03 846 24.98 -0.8 30.5 62 -7.2 19
22:25 1017 30.03 846 24.98 -1 30.3 64 -7 19.4
22:30 1017 30.03 847 25.01 -1.1 30.1 63 -7.1 19.2
22:35 1017 30.03 847 25.01 -1.1 30 64 -7.1 19.3
22:40 1017 30.03 847 25.01 -1.1 30 65 -6.9 19.6
22:45 1017 30.03 847 25.01 -1.2 29.9 67 -6.6 20.2
22:50 1017 30.03 847 25.01 -1.4 29.5 68 -6.4 20.4
22:55 1017 30.03 847 25.01 -1.3 29.7 69 -6.3 20.6
23:00 1018 30.06 847 25.01 -1.2 29.8 69 -6.2 20.9
23:05 1018 30.06 847 25.01 -1.2 29.8 69 -6.1 20.9
23:10 1018 30.06 847 25.01 -1.1 29.9 69 -6.1 21.1
23:15 1018 30.06 847 25.01 -1.1 30.1 68 -6.1 21
23:20 1018 30.06 847 25.01 -0.9 30.3 68 -6 21.1
23:25 1018 30.06 847 25.01 -0.9 30.4 68 -6 21.2
23:30 1018 30.06 847 25.01 -0.8 30.6 69 -5.9 21.5
23:35 1018 30.06 847 25.01 -0.8 30.5 69 -5.8 21.5
23:40 1018 30.06 847 25.01 -0.9 30.4 71 -5.5 22.1
23:45 1018 30.06 847 25.01 -1.1 30.1 73 -5.3 22.5
23:50 1018 30.06 847 25.01 -1.2 29.8 74 -5.2 22.6
23:55 1018 30.06 848 25.04 -1.4 29.5 77 -5 23
24:00 1018 30.06 848 25.04 -1.6 29.1 77 -5.1 22.8